• Join FlightAware (Why Join?)
  • Login
  • US Flag 
04:28AM EST


 

Airport Tracker/Info


-or-


 

Live Flight TrackerFlight Track Log ✈ EJA839 ✈ 18-Apr-2013 ✈ KTUS - KSMO

Flight Track Log - Related Links

Times and Time Zones

All times are in EDT time to prevent confusion due to time zone crossing. See the EJA839 flight status page for this flight to view local times or setup timezone preferences in your user account.

Time Position Orientation Groundspeed Altitude Reporting Facility
EDT Latitude Longitude Course Direction KTS MPH feet Rate Location/Type
03:45PM 32.1203 -110.9453 291° West 172 198 3,200  Level Albuquerque Center
03:46PM 32.1367 -110.9964 291° West 219 252 5,200 1,740 Climbing Albuquerque Center
03:47PM 32.1581 -111.0622 291° West 253 291 6,200 2,100 Climbing Albuquerque Center
03:48PM 32.1825 -111.1389 291° West 252 290 9,600 3,960 Climbing Albuquerque Center
03:49PM 32.2200 -111.2356 295° West 265 305 14,400 3,300 Climbing Albuquerque Center
03:50PM 32.2603 -111.3092 303° West 267 307 16,500 1,860 Climbing Albuquerque Center
03:51PM 32.3089 -111.3942 304° West 302 348 18,300 1,800 Climbing Albuquerque Center
03:52PM 32.3597 -111.4778 306° West 311 358 20,300 1,440 Climbing Albuquerque Center
03:53PM 32.4294 -111.5481 320° Northwest 333 383 21,300 960 Climbing Albuquerque Center
03:54PM 32.5150 -111.5992 333° Northwest 343 395 22,300 1,020 Climbing Albuquerque Center
03:55PM 32.6128 -111.6667 330° Northwest 342 394 23,500 1,200 Climbing Albuquerque Center
03:56PM 32.6658 -111.7578 305° West 332 382 24,800 1,560 Climbing Albuquerque Center
03:57PM 32.7164 -111.8522 302° West 337 388 26,800 1,920 Climbing Albuquerque Center
03:58PM 32.7647 -111.9456 302° West 333 383 28,800 1,920 Climbing Albuquerque Center
03:59PM 32.8139 -112.0356 303° West 329 379 30,800 1,860 Climbing Albuquerque Center
04:00PM 32.8608 -112.1242 302° West 320 368 32,700 1,500 Climbing Albuquerque Center
04:01PM 32.9061 -112.2108 302° West 312 359 34,000 600 Climbing Albuquerque Center
04:02PM 32.9581 -112.3103 302° West 333 383 34,000  Level Albuquerque Center
04:03PM 33.0214 -112.4303 302° West 354 407 34,000  Level Albuquerque Center
04:04PM 33.0742 -112.5286 303° West 355 409 34,000  Level Albuquerque Center
04:05PM 33.1272 -112.6278 303° West 355 409 34,000  Level Albuquerque Center
04:06PM 33.1789 -112.7272 302° West 355 409 34,000  Level Albuquerque Center
04:07PM 33.2317 -112.8297 302° West 358 412 34,000  Level Albuquerque Center
04:08PM 33.2944 -112.9522 302° West 361 415 34,000  Level Albuquerque Center
04:09PM 33.3472 -113.0533 302° West 361 415 34,000  Level Albuquerque Center
04:10PM 33.4006 -113.1525 303° West 359 413 34,000  Level Albuquerque Center
04:12PM 33.4536 -113.2558 302° West 363 418 34,000  Level Albuquerque Center
04:13PM 33.5067 -113.3583 302° West 364 419 34,000  Level Albuquerque Center
04:14PM 33.5700 -113.4811 302° West 363 418 34,000  Level Albuquerque Center
04:15PM 33.6011 -113.5964 288° West 372 428 34,000  Level Albuquerque Center
04:16PM 33.6231 -113.7175 282° West 365 420 34,000  Level Albuquerque Center
04:17PM 33.6461 -113.8356 283° West 364 419 34,000  Level Albuquerque Center
04:18PM 33.6664 -113.9544 282° West 364 419 34,000  Level Albuquerque Center
04:19PM 33.6858 -114.0769 281° West 370 426 34,000 -300 Level Albuquerque Center
04:20PM 33.6975 -114.2203 276° West 372 428 33,400 -1,020 Descending Albuquerque Center
04:21PM 33.7081 -114.3436 276° West 373 429 32,000 -720 Descending Albuquerque Center
04:22PM 33.7208 -114.4822 276° West 383 441 32,000  Level Los Angeles Center
04:23PM 33.7322 -114.6122 276° West 391 450 32,000 -300 Level Los Angeles Center
04:24PM 33.7428 -114.7394 276° West 385 443 31,400 -900 Descending Los Angeles Center
04:25PM 33.7525 -114.8672 275° West 386 444 30,200 -720 Descending Los Angeles Center
04:26PM 33.7639 -114.9956 276° West 387 445 30,000 -120 Descending Los Angeles Center
04:27PM 33.7756 -115.1511 275° West 392 451 30,000  Level Los Angeles Center
04:28PM 33.7856 -115.2814 275° West 394 453 30,000  Level Los Angeles Center
04:29PM 33.7961 -115.4119 276° West 394 453 30,000  Level Los Angeles Center
04:30PM 33.8064 -115.5425 275° West 395 455 30,000  Level Los Angeles Center
04:31PM 33.8172 -115.6731 276° West 393 452 30,000  Level Los Angeles Center
04:32PM 33.8278 -115.8306 275° West 396 456 30,000  Level Los Angeles Center
04:33PM 33.8375 -115.9611 275° West 395 455 30,000 -660 Level Los Angeles Center
04:34PM 33.8467 -116.0928 275° West 397 457 28,700 -1,620 Descending Los Angeles Center
04:35PM 33.8556 -116.2222 275° West 393 452 26,700 -2,040 Descending Los Angeles Center
04:36PM 33.8642 -116.3472 275° West 380 437 24,600 -2,280 Descending Los Angeles Center
04:37PM 33.8722 -116.4694 275° West 370 426 22,100 -2,760 Descending Los Angeles Center
04:38PM 33.8797 -116.6122 274° West 360 414 19,000 -2,880 Descending Los Angeles Center
04:39PM 33.8847 -116.7269 273° West 347 399 16,200 -2,460 Descending Los Angeles Center
04:40PM 33.8889 -116.8389 273° West 340 391 14,000 -1,380 Descending Los Angeles Center
04:41PM 33.9000 -116.9167 280° West 326 375 14,000 -780 Level Southern California TRACON
04:42PM 33.9333 -117.0000 296° West 324 373 12,900 -1,740 Descending Southern California TRACON
04:43PM 33.9667 -117.1167 289° West 320 368 10,600 -1,380 Descending Southern California TRACON
04:44PM 34.0000 -117.2167 292° West 324 373 10,000 -480 Descending Southern California TRACON
04:45PM 34.0167 -117.3167 281° West 296 341 9,700 -660 Descending Southern California TRACON
04:46PM 34.0167 -117.4167 270° West 279 321 8,700 -900 Descending Southern California TRACON
04:47PM 34.0333 -117.5000 284° West 277 319 8,000 -360 Descending Southern California TRACON
04:48PM 34.0500 -117.6000 281° West 270 311 8,000 -120 Level Southern California TRACON
04:49PM 34.0667 -117.6667 287° West 251 289 7,800 -780 Descending Southern California TRACON
04:50PM 34.0667 -117.7667 270° West 261 300 6,600 -900 Descending Southern California TRACON
04:51PM 34.0833 -117.8500 284° West 261 300 6,000 -300 Descending Southern California TRACON
04:52PM 34.1000 -117.9333 284° West 264 304 6,000  Level Southern California TRACON
04:53PM 34.1167 -118.0167 284° West 267 307 6,000 -840 Level Southern California TRACON
04:54PM 34.1167 -118.1167 270° West 260 299 4,400 -960 Descending Southern California TRACON
04:55PM 34.1333 -118.2000 284° West 255 293 4,000 -300 Descending Southern California TRACON
04:56PM 34.1258 -118.2556 261° West 252 290 3,900 -780 Descending Los Angeles Center
04:57PM 34.0947 -118.3342 244° Southwest 227 261 2,600 -1,080 Descending Los Angeles Center
04:58PM 34.0636 -118.3892 236° Southwest 211 243 1,700 -840 Descending Los Angeles Center
04:59PM 34.0425 -118.4206 231° Southwest 152 175 900 -720 Descending Los Angeles Center
05:00PM 34.0211 -118.4456 224° Southwest 125 144 200 -720 Descending Los Angeles Center
05:02PM 34.0158 -118.4513 220° Southwest  Level Estimated
05:09PM 34.0158 -118.4513 220° Southwest  Level Estimated